sensor_id;sensor_type;location;lat;lon;timestamp;P1;durP1;ratioP1;P2;durP2;ratioP2
43706;SDS011;61348;53.392;-6.248;2023-04-24T00:01:07;11.20;;;7.95;;
43706;SDS011;61348;53.392;-6.248;2023-04-24T00:03:35;9.85;;;7.28;;
43706;SDS011;61348;53.392;-6.248;2023-04-24T00:06:03;9.63;;;6.95;;
43706;SDS011;61348;53.392;-6.248;2023-04-24T00:08:32;11.93;;;8.32;;
43706;SDS011;61348;53.392;-6.248;2023-04-24T00:10:59;14.32;;;8.57;;
43706;SDS011;61348;53.392;-6.248;2023-04-24T00:13:26;9.85;;;7.57;;
43706;SDS011;61348;53.392;-6.248;2023-04-24T00:15:55;15.95;;;8.00;;
43706;SDS011;61348;53.392;-6.248;2023-04-24T00:18:22;11.35;;;6.75;;
43706;SDS011;61348;53.392;-6.248;2023-04-24T00:20:48;12.35;;;6.55;;
43706;SDS011;61348;53.392;-6.248;2023-04-24T00:23:15;14.43;;;9.07;;
43706;SDS011;61348;53.392;-6.248;2023-04-24T00:25:42;11.10;;;5.97;;
43706;SDS011;61348;53.392;-6.248;2023-04-24T00:28:08;12.18;;;5.88;;
43706;SDS011;61348;53.392;-6.248;2023-04-24T00:30:35;14.45;;;6.38;;
43706;SDS011;61348;53.392;-6.248;2023-04-24T00:33:02;11.23;;;5.97;;
43706;SDS011;61348;53.392;-6.248;2023-04-24T00:35:29;9.05;;;5.45;;
43706;SDS011;61348;53.392;-6.248;2023-04-24T00:37:56;10.20;;;5.53;;
43706;SDS011;61348;53.392;-6.248;2023-04-24T00:40:23;8.57;;;5.65;;
43706;SDS011;61348;53.392;-6.248;2023-04-24T00:42:49;12.18;;;6.45;;
43706;SDS011;61348;53.392;-6.248;2023-04-24T00:45:16;11.98;;;5.78;;
43706;SDS011;61348;53.392;-6.248;2023-04-24T00:47:43;11.32;;;5.90;;
43706;SDS011;61348;53.392;-6.248;2023-04-24T00:50:11;12.98;;;5.85;;
43706;SDS011;61348;53.392;-6.248;2023-04-24T00:52:40;10.13;;;5.95;;
43706;SDS011;61348;53.392;-6.248;2023-04-24T00:55:07;10.43;;;5.40;;
43706;SDS011;61348;53.392;-6.248;2023-04-24T00:57:34;9.13;;;6.13;;
43706;SDS011;61348;53.392;-6.248;2023-04-24T01:00:02;13.68;;;7.40;;
43706;SDS011;61348;53.392;-6.248;2023-04-24T01:02:29;8.93;;;5.35;;
43706;SDS011;61348;53.392;-6.248;2023-04-24T01:04:56;11.48;;;5.93;;
43706;SDS011;61348;53.392;-6.248;2023-04-24T01:07:23;13.13;;;6.22;;
43706;SDS011;61348;53.392;-6.248;2023-04-24T01:09:51;9.50;;;6.20;;
43706;SDS011;61348;53.392;-6.248;2023-04-24T01:12:18;10.45;;;5.47;;
43706;SDS011;61348;53.392;-6.248;2023-04-24T01:14:46;16.67;;;6.55;;
43706;SDS011;61348;53.392;-6.248;2023-04-24T01:17:12;11.60;;;6.88;;
43706;SDS011;61348;53.392;-6.248;2023-04-24T01:19:39;11.48;;;5.20;;
43706;SDS011;61348;53.392;-6.248;2023-04-24T01:22:08;13.27;;;5.18;;
43706;SDS011;61348;53.392;-6.248;2023-04-24T01:24:42;11.02;;;5.60;;
43706;SDS011;61348;53.392;-6.248;2023-04-24T01:27:09;11.20;;;5.22;;
43706;SDS011;61348;53.392;-6.248;2023-04-24T01:29:36;10.40;;;4.90;;
43706;SDS011;61348;53.392;-6.248;2023-04-24T01:32:04;11.07;;;5.07;;
43706;SDS011;61348;53.392;-6.248;2023-04-24T01:34:31;14.52;;;5.03;;
43706;SDS011;61348;53.392;-6.248;2023-04-24T01:36:58;9.05;;;4.53;;
43706;SDS011;61348;53.392;-6.248;2023-04-24T01:39:25;7.35;;;4.60;;
43706;SDS011;61348;53.392;-6.248;2023-04-24T01:41:55;10.88;;;4.35;;
43706;SDS011;61348;53.392;-6.248;2023-04-24T01:44:22;10.40;;;4.90;;
43706;SDS011;61348;53.392;-6.248;2023-04-24T01:46:49;8.27;;;4.50;;
43706;SDS011;61348;53.392;-6.248;2023-04-24T01:49:17;10.02;;;4.85;;
43706;SDS011;61348;53.392;-6.248;2023-04-24T01:51:44;14.43;;;6.43;;
43706;SDS011;61348;53.392;-6.248;2023-04-24T01:54:11;11.30;;;4.47;;
43706;SDS011;61348;53.392;-6.248;2023-04-24T01:56:40;7.97;;;4.90;;
43706;SDS011;61348;53.392;-6.248;2023-04-24T01:59:11;10.15;;;4.63;;
43706;SDS011;61348;53.392;-6.248;2023-04-24T02:01:39;11.95;;;6.85;;
43706;SDS011;61348;53.392;-6.248;2023-04-24T02:04:06;11.40;;;4.32;;
43706;SDS011;61348;53.392;-6.248;2023-04-24T02:06:34;12.95;;;4.97;;
43706;SDS011;61348;53.392;-6.248;2023-04-24T02:09:01;8.90;;;4.07;;
43706;SDS011;61348;53.392;-6.248;2023-04-24T02:11:29;10.55;;;5.15;;
43706;SDS011;61348;53.392;-6.248;2023-04-24T02:13:57;10.10;;;4.60;;
43706;SDS011;61348;53.392;-6.248;2023-04-24T02:16:24;12.02;;;4.85;;
43706;SDS011;61348;53.392;-6.248;2023-04-24T02:18:51;6.95;;;4.55;;
43706;SDS011;61348;53.392;-6.248;2023-04-24T02:21:18;7.30;;;4.45;;
43706;SDS011;61348;53.392;-6.248;2023-04-24T02:23:44;8.90;;;4.15;;
43706;SDS011;61348;53.392;-6.248;2023-04-24T02:26:11;8.82;;;3.67;;
43706;SDS011;61348;53.392;-6.248;2023-04-24T02:28:38;9.63;;;5.25;;
43706;SDS011;61348;53.392;-6.248;2023-04-24T02:31:05;8.18;;;3.58;;
43706;SDS011;61348;53.392;-6.248;2023-04-24T02:33:32;6.47;;;3.67;;
43706;SDS011;61348;53.392;-6.248;2023-04-24T02:35:59;7.75;;;4.15;;
43706;SDS011;61348;53.392;-6.248;2023-04-24T02:38:26;8.50;;;3.97;;
43706;SDS011;61348;53.392;-6.248;2023-04-24T02:40:53;6.90;;;3.63;;
43706;SDS011;61348;53.392;-6.248;2023-04-24T02:43:19;10.18;;;4.22;;
43706;SDS011;61348;53.392;-6.248;2023-04-24T02:45:46;7.60;;;3.33;;
43706;SDS011;61348;53.392;-6.248;2023-04-24T02:48:13;7.80;;;3.35;;
43706;SDS011;61348;53.392;-6.248;2023-04-24T02:50:40;6.30;;;3.80;;
43706;SDS011;61348;53.392;-6.248;2023-04-24T02:53:07;11.57;;;3.80;;
43706;SDS011;61348;53.392;-6.248;2023-04-24T02:55:33;9.27;;;4.28;;
43706;SDS011;61348;53.392;-6.248;2023-04-24T02:58:00;9.70;;;3.90;;
43706;SDS011;61348;53.392;-6.248;2023-04-24T03:03:02;12.52;;;6.53;;
43706;SDS011;61348;53.392;-6.248;2023-04-24T03:05:29;10.50;;;4.68;;
43706;SDS011;61348;53.392;-6.248;2023-04-24T03:07:57;9.00;;;3.90;;
43706;SDS011;61348;53.392;-6.248;2023-04-24T03:10:24;9.25;;;4.40;;
43706;SDS011;61348;53.392;-6.248;2023-04-24T03:12:51;8.27;;;4.10;;
43706;SDS011;61348;53.392;-6.248;2023-04-24T03:15:17;8.57;;;4.95;;
43706;SDS011;61348;53.392;-6.248;2023-04-24T03:17:44;8.98;;;4.35;;
43706;SDS011;61348;53.392;-6.248;2023-04-24T03:20:11;9.68;;;4.40;;
43706;SDS011;61348;53.392;-6.248;2023-04-24T03:22:38;11.65;;;4.40;;
43706;SDS011;61348;53.392;-6.248;2023-04-24T03:25:05;9.63;;;5.28;;
43706;SDS011;61348;53.392;-6.248;2023-04-24T03:27:32;8.98;;;4.50;;
43706;SDS011;61348;53.392;-6.248;2023-04-24T03:30:07;6.55;;;4.90;;
43706;SDS011;61348;53.392;-6.248;2023-04-24T03:32:34;10.73;;;5.68;;
43706;SDS011;61348;53.392;-6.248;2023-04-24T03:35:01;6.15;;;4.57;;
43706;SDS011;61348;53.392;-6.248;2023-04-24T03:37:29;15.00;;;5.93;;
43706;SDS011;61348;53.392;-6.248;2023-04-24T03:39:56;12.88;;;7.15;;
43706;SDS011;61348;53.392;-6.248;2023-04-24T03:42:22;11.05;;;4.10;;
43706;SDS011;61348;53.392;-6.248;2023-04-24T03:44:49;9.52;;;4.40;;
43706;SDS011;61348;53.392;-6.248;2023-04-24T03:47:16;8.90;;;3.50;;
43706;SDS011;61348;53.392;-6.248;2023-04-24T03:49:43;8.82;;;3.58;;
43706;SDS011;61348;53.392;-6.248;2023-04-24T03:52:10;5.15;;;2.35;;
43706;SDS011;61348;53.392;-6.248;2023-04-24T03:54:36;5.90;;;2.40;;
43706;SDS011;61348;53.392;-6.248;2023-04-24T03:57:03;6.03;;;2.00;;
43706;SDS011;61348;53.392;-6.248;2023-04-24T03:59:31;6.10;;;2.00;;
43706;SDS011;61348;53.392;-6.248;2023-04-24T04:01:57;6.85;;;2.08;;
43706;SDS011;61348;53.392;-6.248;2023-04-24T04:04:24;6.53;;;2.03;;
43706;SDS011;61348;53.392;-6.248;2023-04-24T04:06:51;4.82;;;2.08;;
43706;SDS011;61348;53.392;-6.248;2023-04-24T04:09:18;7.55;;;2.15;;
43706;SDS011;61348;53.392;-6.248;2023-04-24T04:11:45;8.35;;;2.33;;
43706;SDS011;61348;53.392;-6.248;2023-04-24T04:14:12;6.72;;;2.35;;
43706;SDS011;61348;53.392;-6.248;2023-04-24T04:16:40;5.35;;;2.55;;
43706;SDS011;61348;53.392;-6.248;2023-04-24T04:19:07;8.93;;;1.77;;
43706;SDS011;61348;53.392;-6.248;2023-04-24T04:21:34;4.00;;;1.83;;
43706;SDS011;61348;53.392;-6.248;2023-04-24T04:24:01;9.13;;;2.92;;
43706;SDS011;61348;53.392;-6.248;2023-04-24T04:26:28;8.65;;;2.35;;
43706;SDS011;61348;53.392;-6.248;2023-04-24T04:28:58;9.73;;;2.70;;
43706;SDS011;61348;53.392;-6.248;2023-04-24T04:31:26;6.25;;;2.30;;
43706;SDS011;61348;53.392;-6.248;2023-04-24T04:33:53;8.63;;;2.58;;
43706;SDS011;61348;53.392;-6.248;2023-04-24T04:36:20;9.40;;;2.33;;
43706;SDS011;61348;53.392;-6.248;2023-04-24T04:38:47;9.15;;;2.15;;
43706;SDS011;61348;53.392;-6.248;2023-04-24T04:41:14;9.80;;;2.88;;
43706;SDS011;61348;53.392;-6.248;2023-04-24T04:43:43;10.07;;;3.53;;
43706;SDS011;61348;53.392;-6.248;2023-04-24T04:46:09;10.98;;;2.58;;
43706;SDS011;61348;53.392;-6.248;2023-04-24T04:48:37;13.30;;;2.97;;
43706;SDS011;61348;53.392;-6.248;2023-04-24T04:51:04;11.63;;;2.63;;
43706;SDS011;61348;53.392;-6.248;2023-04-24T04:53:31;11.57;;;2.50;;
43706;SDS011;61348;53.392;-6.248;2023-04-24T04:55:57;11.80;;;2.47;;
43706;SDS011;61348;53.392;-6.248;2023-04-24T04:58:24;21.60;;;5.65;;
43706;SDS011;61348;53.392;-6.248;2023-04-24T05:00:51;10.32;;;2.78;;
43706;SDS011;61348;53.392;-6.248;2023-04-24T05:03:18;7.50;;;2.78;;
43706;SDS011;61348;53.392;-6.248;2023-04-24T05:05:47;9.27;;;2.30;;
43706;SDS011;61348;53.392;-6.248;2023-04-24T05:08:13;11.43;;;2.38;;
43706;SDS011;61348;53.392;-6.248;2023-04-24T05:10:43;12.02;;;2.33;;
43706;SDS011;61348;53.392;-6.248;2023-04-24T05:13:10;8.93;;;2.70;;
43706;SDS011;61348;53.392;-6.248;2023-04-24T05:15:39;7.32;;;2.80;;
43706;SDS011;61348;53.392;-6.248;2023-04-24T05:18:06;10.68;;;3.45;;
43706;SDS011;61348;53.392;-6.248;2023-04-24T05:20:33;10.38;;;2.40;;
43706;SDS011;61348;53.392;-6.248;2023-04-24T05:22:59;7.43;;;1.92;;
43706;SDS011;61348;53.392;-6.248;2023-04-24T05:25:26;12.15;;;2.33;;
43706;SDS011;61348;53.392;-6.248;2023-04-24T05:27:53;8.55;;;2.20;;
43706;SDS011;61348;53.392;-6.248;2023-04-24T05:30:20;12.65;;;1.77;;
43706;SDS011;61348;53.392;-6.248;2023-04-24T05:32:47;10.00;;;2.25;;
43706;SDS011;61348;53.392;-6.248;2023-04-24T05:35:14;10.93;;;2.45;;
43706;SDS011;61348;53.392;-6.248;2023-04-24T05:37:40;10.60;;;3.65;;
43706;SDS011;61348;53.392;-6.248;2023-04-24T05:40:07;11.55;;;2.35;;
43706;SDS011;61348;53.392;-6.248;2023-04-24T05:42:35;6.95;;;1.83;;
43706;SDS011;61348;53.392;-6.248;2023-04-24T05:45:02;5.80;;;1.73;;
43706;SDS011;61348;53.392;-6.248;2023-04-24T05:47:29;14.32;;;3.28;;
43706;SDS011;61348;53.392;-6.248;2023-04-24T05:49:56;8.55;;;2.00;;
43706;SDS011;61348;53.392;-6.248;2023-04-24T05:52:23;9.75;;;2.58;;
43706;SDS011;61348;53.392;-6.248;2023-04-24T05:54:49;5.22;;;1.60;;
43706;SDS011;61348;53.392;-6.248;2023-04-24T05:57:16;8.18;;;1.77;;
43706;SDS011;61348;53.392;-6.248;2023-04-24T05:59:43;7.25;;;1.50;;
43706;SDS011;61348;53.392;-6.248;2023-04-24T06:02:12;9.60;;;2.78;;
43706;SDS011;61348;53.392;-6.248;2023-04-24T06:04:39;11.30;;;2.50;;
43706;SDS011;61348;53.392;-6.248;2023-04-24T06:07:06;8.82;;;2.25;;
43706;SDS011;61348;53.392;-6.248;2023-04-24T06:09:33;10.93;;;2.90;;
43706;SDS011;61348;53.392;-6.248;2023-04-24T06:12:00;8.48;;;3.22;;
43706;SDS011;61348;53.392;-6.248;2023-04-24T06:14:27;9.65;;;3.33;;
43706;SDS011;61348;53.392;-6.248;2023-04-24T06:16:53;9.27;;;2.50;;
43706;SDS011;61348;53.392;-6.248;2023-04-24T06:19:20;9.05;;;3.72;;
43706;SDS011;61348;53.392;-6.248;2023-04-24T06:21:47;6.55;;;3.45;;
43706;SDS011;61348;53.392;-6.248;2023-04-24T06:24:14;8.32;;;2.55;;
43706;SDS011;61348;53.392;-6.248;2023-04-24T06:26:42;5.50;;;1.90;;
43706;SDS011;61348;53.392;-6.248;2023-04-24T06:29:09;4.40;;;1.92;;
43706;SDS011;61348;53.392;-6.248;2023-04-24T06:31:36;2.88;;;1.88;;
43706;SDS011;61348;53.392;-6.248;2023-04-24T06:34:03;3.08;;;1.50;;
43706;SDS011;61348;53.392;-6.248;2023-04-24T06:36:30;3.15;;;1.38;;
43706;SDS011;61348;53.392;-6.248;2023-04-24T06:38:57;5.20;;;1.40;;
43706;SDS011;61348;53.392;-6.248;2023-04-24T06:41:24;6.18;;;1.20;;
43706;SDS011;61348;53.392;-6.248;2023-04-24T06:43:51;5.03;;;1.42;;
43706;SDS011;61348;53.392;-6.248;2023-04-24T06:46:18;2.70;;;1.00;;
43706;SDS011;61348;53.392;-6.248;2023-04-24T06:48:44;5.25;;;1.13;;
43706;SDS011;61348;53.392;-6.248;2023-04-24T06:51:12;4.95;;;1.25;;
43706;SDS011;61348;53.392;-6.248;2023-04-24T06:53:39;2.70;;;1.08;;
43706;SDS011;61348;53.392;-6.248;2023-04-24T06:56:06;6.80;;;1.52;;
43706;SDS011;61348;53.392;-6.248;2023-04-24T06:58:33;3.15;;;1.27;;
43706;SDS011;61348;53.392;-6.248;2023-04-24T07:00:59;4.07;;;1.50;;
43706;SDS011;61348;53.392;-6.248;2023-04-24T07:03:26;4.10;;;2.28;;
43706;SDS011;61348;53.392;-6.248;2023-04-24T07:05:54;6.80;;;1.88;;
43706;SDS011;61348;53.392;-6.248;2023-04-24T07:08:21;3.50;;;1.67;;
43706;SDS011;61348;53.392;-6.248;2023-04-24T07:10:48;9.48;;;2.88;;
43706;SDS011;61348;53.392;-6.248;2023-04-24T07:13:16;4.28;;;2.20;;
43706;SDS011;61348;53.392;-6.248;2023-04-24T07:15:43;6.07;;;1.58;;
43706;SDS011;61348;53.392;-6.248;2023-04-24T07:18:11;3.85;;;1.88;;
43706;SDS011;61348;53.392;-6.248;2023-04-24T07:20:39;5.47;;;2.50;;
43706;SDS011;61348;53.392;-6.248;2023-04-24T07:23:07;5.82;;;1.70;;
43706;SDS011;61348;53.392;-6.248;2023-04-24T07:25:33;7.65;;;2.30;;
43706;SDS011;61348;53.392;-6.248;2023-04-24T07:28:01;4.47;;;2.17;;
43706;SDS011;61348;53.392;-6.248;2023-04-24T07:30:28;3.38;;;2.00;;
43706;SDS011;61348;53.392;-6.248;2023-04-24T07:32:55;3.40;;;1.98;;
43706;SDS011;61348;53.392;-6.248;2023-04-24T07:35:22;4.00;;;1.73;;
43706;SDS011;61348;53.392;-6.248;2023-04-24T07:37:52;6.47;;;1.55;;
43706;SDS011;61348;53.392;-6.248;2023-04-24T07:40:20;6.38;;;1.88;;
43706;SDS011;61348;53.392;-6.248;2023-04-24T07:42:46;5.43;;;1.45;;
43706;SDS011;61348;53.392;-6.248;2023-04-24T07:45:14;5.38;;;2.13;;
43706;SDS011;61348;53.392;-6.248;2023-04-24T07:47:42;5.85;;;2.35;;
43706;SDS011;61348;53.392;-6.248;2023-04-24T07:50:10;8.55;;;1.90;;
43706;SDS011;61348;53.392;-6.248;2023-04-24T07:52:37;7.25;;;2.55;;
43706;SDS011;61348;53.392;-6.248;2023-04-24T07:55:05;11.68;;;2.42;;
43706;SDS011;61348;53.392;-6.248;2023-04-24T07:57:31;9.93;;;2.33;;
43706;SDS011;61348;53.392;-6.248;2023-04-24T07:59:58;6.65;;;1.95;;
43706;SDS011;61348;53.392;-6.248;2023-04-24T08:02:25;3.55;;;1.90;;
43706;SDS011;61348;53.392;-6.248;2023-04-24T08:04:53;4.88;;;2.50;;
43706;SDS011;61348;53.392;-6.248;2023-04-24T08:07:21;7.53;;;2.88;;
43706;SDS011;61348;53.392;-6.248;2023-04-24T08:09:49;9.77;;;2.15;;
43706;SDS011;61348;53.392;-6.248;2023-04-24T08:12:16;8.05;;;2.20;;
43706;SDS011;61348;53.392;-6.248;2023-04-24T08:14:42;9.52;;;2.50;;
43706;SDS011;61348;53.392;-6.248;2023-04-24T08:17:10;6.53;;;2.70;;
43706;SDS011;61348;53.392;-6.248;2023-04-24T08:19:36;6.18;;;2.15;;
43706;SDS011;61348;53.392;-6.248;2023-04-24T08:22:03;10.77;;;1.98;;
43706;SDS011;61348;53.392;-6.248;2023-04-24T08:24:30;7.30;;;2.00;;
43706;SDS011;61348;53.392;-6.248;2023-04-24T08:26:57;12.73;;;2.45;;
43706;SDS011;61348;53.392;-6.248;2023-04-24T08:29:24;11.63;;;2.13;;
43706;SDS011;61348;53.392;-6.248;2023-04-24T08:31:51;6.70;;;1.75;;
43706;SDS011;61348;53.392;-6.248;2023-04-24T08:34:21;5.82;;;1.67;;
43706;SDS011;61348;53.392;-6.248;2023-04-24T08:36:48;8.48;;;2.65;;
43706;SDS011;61348;53.392;-6.248;2023-04-24T08:39:15;18.20;;;3.20;;
43706;SDS011;61348;53.392;-6.248;2023-04-24T08:41:42;5.15;;;1.85;;
43706;SDS011;61348;53.392;-6.248;2023-04-24T08:44:09;7.22;;;2.88;;
43706;SDS011;61348;53.392;-6.248;2023-04-24T08:46:37;8.65;;;2.67;;
43706;SDS011;61348;53.392;-6.248;2023-04-24T08:49:04;8.40;;;1.77;;
43706;SDS011;61348;53.392;-6.248;2023-04-24T08:51:31;9.30;;;1.83;;
43706;SDS011;61348;53.392;-6.248;2023-04-24T08:53:58;8.00;;;1.25;;
43706;SDS011;61348;53.392;-6.248;2023-04-24T08:56:25;5.00;;;1.95;;
43706;SDS011;61348;53.392;-6.248;2023-04-24T08:58:55;9.02;;;2.05;;
43706;SDS011;61348;53.392;-6.248;2023-04-24T09:01:22;11.38;;;1.95;;
43706;SDS011;61348;53.392;-6.248;2023-04-24T09:03:51;8.55;;;2.28;;
43706;SDS011;61348;53.392;-6.248;2023-04-24T09:06:21;5.60;;;1.75;;
43706;SDS011;61348;53.392;-6.248;2023-04-24T09:08:48;4.32;;;1.88;;
43706;SDS011;61348;53.392;-6.248;2023-04-24T09:11:18;4.22;;;1.77;;
43706;SDS011;61348;53.392;-6.248;2023-04-24T09:13:45;3.10;;;1.20;;
43706;SDS011;61348;53.392;-6.248;2023-04-24T09:16:13;6.53;;;2.22;;
43706;SDS011;61348;53.392;-6.248;2023-04-24T09:18:41;3.08;;;1.55;;
43706;SDS011;61348;53.392;-6.248;2023-04-24T09:21:08;5.68;;;1.60;;
43706;SDS011;61348;53.392;-6.248;2023-04-24T09:23:35;4.78;;;1.60;;
43706;SDS011;61348;53.392;-6.248;2023-04-24T09:26:02;6.03;;;1.98;;
43706;SDS011;61348;53.392;-6.248;2023-04-24T09:28:35;5.55;;;1.52;;
43706;SDS011;61348;53.392;-6.248;2023-04-24T09:33:33;4.47;;;1.60;;
43706;SDS011;61348;53.392;-6.248;2023-04-24T09:36:02;7.13;;;2.92;;
43706;SDS011;61348;53.392;-6.248;2023-04-24T09:38:35;3.90;;;1.70;;
43706;SDS011;61348;53.392;-6.248;2023-04-24T09:41:04;8.77;;;2.47;;
43706;SDS011;61348;53.392;-6.248;2023-04-24T09:43:34;3.65;;;2.25;;
43706;SDS011;61348;53.392;-6.248;2023-04-24T09:46:05;2.58;;;1.67;;
43706;SDS011;61348;53.392;-6.248;2023-04-24T09:48:34;3.65;;;2.08;;
43706;SDS011;61348;53.392;-6.248;2023-04-24T09:51:02;3.58;;;1.60;;
43706;SDS011;61348;53.392;-6.248;2023-04-24T09:53:33;5.75;;;1.55;;
43706;SDS011;61348;53.392;-6.248;2023-04-24T09:56:06;9.05;;;1.77;;
43706;SDS011;61348;53.392;-6.248;2023-04-24T09:58:37;6.82;;;1.70;;
43706;SDS011;61348;53.392;-6.248;2023-04-24T10:01:04;7.43;;;2.13;;
43706;SDS011;61348;53.392;-6.248;2023-04-24T10:03:32;8.70;;;1.67;;
43706;SDS011;61348;53.392;-6.248;2023-04-24T10:06:00;2.83;;;1.83;;
43706;SDS011;61348;53.392;-6.248;2023-04-24T10:08:35;4.57;;;2.03;;
43706;SDS011;61348;53.392;-6.248;2023-04-24T10:11:03;2.72;;;1.42;;
43706;SDS011;61348;53.392;-6.248;2023-04-24T10:13:30;4.90;;;1.80;;
43706;SDS011;61348;53.392;-6.248;2023-04-24T10:15:59;4.22;;;1.60;;
43706;SDS011;61348;53.392;-6.248;2023-04-24T10:18:27;6.22;;;1.50;;
43706;SDS011;61348;53.392;-6.248;2023-04-24T10:20:54;8.27;;;2.25;;
43706;SDS011;61348;53.392;-6.248;2023-04-24T10:23:21;7.22;;;2.53;;
43706;SDS011;61348;53.392;-6.248;2023-04-24T10:25:49;4.90;;;2.00;;
43706;SDS011;61348;53.392;-6.248;2023-04-24T10:28:17;7.80;;;2.05;;
43706;SDS011;61348;53.392;-6.248;2023-04-24T10:30:45;9.80;;;2.10;;
43706;SDS011;61348;53.392;-6.248;2023-04-24T10:33:12;6.32;;;1.73;;
43706;SDS011;61348;53.392;-6.248;2023-04-24T10:35:41;5.40;;;1.58;;
43706;SDS011;61348;53.392;-6.248;2023-04-24T10:38:14;2.88;;;1.50;;
43706;SDS011;61348;53.392;-6.248;2023-04-24T10:40:43;7.50;;;2.30;;
43706;SDS011;61348;53.392;-6.248;2023-04-24T10:43:10;5.05;;;3.08;;
43706;SDS011;61348;53.392;-6.248;2023-04-24T10:45:42;8.77;;;2.15;;
43706;SDS011;61348;53.392;-6.248;2023-04-24T10:48:27;7.07;;;1.67;;
43706;SDS011;61348;53.392;-6.248;2023-04-24T10:50:54;10.30;;;2.03;;
43706;SDS011;61348;53.392;-6.248;2023-04-24T10:53:22;4.93;;;1.50;;
43706;SDS011;61348;53.392;-6.248;2023-04-24T10:55:50;6.20;;;2.00;;
43706;SDS011;61348;53.392;-6.248;2023-04-24T10:58:22;7.55;;;2.03;;
43706;SDS011;61348;53.392;-6.248;2023-04-24T11:00:58;3.13;;;1.17;;
43706;SDS011;61348;53.392;-6.248;2023-04-24T11:03:27;5.40;;;2.72;;
43706;SDS011;61348;53.392;-6.248;2023-04-24T11:05:59;10.30;;;1.88;;
43706;SDS011;61348;53.392;-6.248;2023-04-24T11:08:38;8.77;;;3.00;;
43706;SDS011;61348;53.392;-6.248;2023-04-24T11:21:48;2.40;;;1.10;;
43706;SDS011;61348;53.392;-6.248;2023-04-24T11:24:25;7.28;;;1.85;;
43706;SDS011;61348;53.392;-6.248;2023-04-24T11:27:07;6.05;;;1.73;;
43706;SDS011;61348;53.392;-6.248;2023-04-24T11:29:44;9.40;;;1.83;;
43706;SDS011;61348;53.392;-6.248;2023-04-24T11:34:46;4.05;;;1.52;;
43706;SDS011;61348;53.392;-6.248;2023-04-24T11:37:17;10.43;;;1.97;;
43706;SDS011;61348;53.392;-6.248;2023-04-24T11:39:44;6.43;;;1.92;;
43706;SDS011;61348;53.392;-6.248;2023-04-24T11:42:12;7.07;;;2.05;;
43706;SDS011;61348;53.392;-6.248;2023-04-24T11:44:42;8.55;;;1.65;;
43706;SDS011;61348;53.392;-6.248;2023-04-24T11:47:09;9.98;;;2.08;;
43706;SDS011;61348;53.392;-6.248;2023-04-24T11:49:36;9.27;;;1.92;;
43706;SDS011;61348;53.392;-6.248;2023-04-24T11:52:04;4.38;;;1.63;;
43706;SDS011;61348;53.392;-6.248;2023-04-24T11:54:31;7.13;;;2.35;;
43706;SDS011;61348;53.392;-6.248;2023-04-24T11:56:58;11.45;;;2.00;;
43706;SDS011;61348;53.392;-6.248;2023-04-24T11:59:25;3.92;;;1.67;;
43706;SDS011;61348;53.392;-6.248;2023-04-24T12:01:52;5.00;;;2.40;;
43706;SDS011;61348;53.392;-6.248;2023-04-24T12:04:18;7.47;;;2.20;;
43706;SDS011;61348;53.392;-6.248;2023-04-24T12:07:04;3.63;;;1.38;;
43706;SDS011;61348;53.392;-6.248;2023-04-24T12:09:44;4.28;;;1.70;;
43706;SDS011;61348;53.392;-6.248;2023-04-24T12:12:13;4.40;;;1.33;;
43706;SDS011;61348;53.392;-6.248;2023-04-24T12:14:47;7.28;;;1.50;;
43706;SDS011;61348;53.392;-6.248;2023-04-24T12:17:16;9.40;;;2.22;;
43706;SDS011;61348;53.392;-6.248;2023-04-24T12:19:46;6.38;;;1.70;;
43706;SDS011;61348;53.392;-6.248;2023-04-24T12:22:14;9.85;;;1.50;;
43706;SDS011;61348;53.392;-6.248;2023-04-24T12:25:01;10.05;;;2.85;;
43706;SDS011;61348;53.392;-6.248;2023-04-24T12:27:32;8.18;;;2.50;;
43706;SDS011;61348;53.392;-6.248;2023-04-24T12:29:59;4.68;;;1.80;;
43706;SDS011;61348;53.392;-6.248;2023-04-24T12:32:29;3.60;;;1.30;;
43706;SDS011;61348;53.392;-6.248;2023-04-24T12:34:56;7.88;;;1.88;;
43706;SDS011;61348;53.392;-6.248;2023-04-24T12:37:24;4.95;;;1.63;;
43706;SDS011;61348;53.392;-6.248;2023-04-24T12:42:27;7.28;;;1.70;;
43706;SDS011;61348;53.392;-6.248;2023-04-24T12:44:56;8.13;;;1.40;;
43706;SDS011;61348;53.392;-6.248;2023-04-24T12:47:25;3.55;;;1.00;;
43706;SDS011;61348;53.392;-6.248;2023-04-24T12:49:52;7.03;;;1.80;;
43706;SDS011;61348;53.392;-6.248;2023-04-24T12:52:19;12.40;;;1.70;;
43706;SDS011;61348;53.392;-6.248;2023-04-24T12:54:50;3.05;;;1.25;;
43706;SDS011;61348;53.392;-6.248;2023-04-24T12:57:19;8.82;;;1.33;;
43706;SDS011;61348;53.392;-6.248;2023-04-24T12:59:46;8.75;;;1.73;;
43706;SDS011;61348;53.392;-6.248;2023-04-24T13:02:13;4.90;;;1.10;;
43706;SDS011;61348;53.392;-6.248;2023-04-24T13:04:40;6.18;;;1.42;;
43706;SDS011;61348;53.392;-6.248;2023-04-24T13:07:07;6.85;;;1.60;;
43706;SDS011;61348;53.392;-6.248;2023-04-24T13:09:34;7.38;;;1.73;;
43706;SDS011;61348;53.392;-6.248;2023-04-24T13:12:01;3.72;;;1.65;;
43706;SDS011;61348;53.392;-6.248;2023-04-24T13:14:28;5.25;;;1.80;;
43706;SDS011;61348;53.392;-6.248;2023-04-24T13:16:55;2.50;;;1.20;;
43706;SDS011;61348;53.392;-6.248;2023-04-24T13:19:23;5.03;;;1.60;;
43706;SDS011;61348;53.392;-6.248;2023-04-24T13:21:56;8.98;;;3.97;;
43706;SDS011;61348;53.392;-6.248;2023-04-24T13:24:23;4.38;;;1.73;;
43706;SDS011;61348;53.392;-6.248;2023-04-24T13:26:51;3.33;;;1.35;;
43706;SDS011;61348;53.392;-6.248;2023-04-24T13:29:19;4.63;;;1.83;;
43706;SDS011;61348;53.392;-6.248;2023-04-24T13:31:51;9.48;;;2.00;;
43706;SDS011;61348;53.392;-6.248;2023-04-24T13:34:23;2.35;;;1.33;;
43706;SDS011;61348;53.392;-6.248;2023-04-24T13:36:52;7.78;;;1.73;;
43706;SDS011;61348;53.392;-6.248;2023-04-24T13:39:19;7.38;;;1.90;;
43706;SDS011;61348;53.392;-6.248;2023-04-24T13:41:47;5.25;;;1.70;;
43706;SDS011;61348;53.392;-6.248;2023-04-24T13:44:14;4.45;;;1.45;;
43706;SDS011;61348;53.392;-6.248;2023-04-24T13:46:43;7.63;;;1.92;;
43706;SDS011;61348;53.392;-6.248;2023-04-24T13:49:14;4.00;;;1.20;;
43706;SDS011;61348;53.392;-6.248;2023-04-24T13:51:42;5.65;;;1.33;;
43706;SDS011;61348;53.392;-6.248;2023-04-24T13:54:10;5.28;;;1.35;;
43706;SDS011;61348;53.392;-6.248;2023-04-24T13:56:36;3.55;;;1.38;;
43706;SDS011;61348;53.392;-6.248;2023-04-24T13:59:03;8.40;;;1.77;;
43706;SDS011;61348;53.392;-6.248;2023-04-24T14:01:30;6.15;;;1.25;;
43706;SDS011;61348;53.392;-6.248;2023-04-24T14:03:57;7.72;;;2.20;;
43706;SDS011;61348;53.392;-6.248;2023-04-24T14:06:23;4.90;;;1.45;;
43706;SDS011;61348;53.392;-6.248;2023-04-24T14:08:50;4.32;;;1.80;;
43706;SDS011;61348;53.392;-6.248;2023-04-24T14:11:18;7.78;;;1.98;;
43706;SDS011;61348;53.392;-6.248;2023-04-24T14:13:45;3.75;;;2.15;;
43706;SDS011;61348;53.392;-6.248;2023-04-24T14:16:12;3.63;;;1.40;;
43706;SDS011;61348;53.392;-6.248;2023-04-24T14:18:40;3.95;;;1.30;;
43706;SDS011;61348;53.392;-6.248;2023-04-24T14:21:07;4.43;;;1.73;;
43706;SDS011;61348;53.392;-6.248;2023-04-24T14:23:34;5.93;;;1.48;;
43706;SDS011;61348;53.392;-6.248;2023-04-24T14:26:00;3.75;;;1.40;;
43706;SDS011;61348;53.392;-6.248;2023-04-24T14:28:27;5.68;;;1.80;;
43706;SDS011;61348;53.392;-6.248;2023-04-24T14:30:54;3.20;;;1.20;;
43706;SDS011;61348;53.392;-6.248;2023-04-24T14:33:21;2.63;;;1.33;;
43706;SDS011;61348;53.392;-6.248;2023-04-24T14:35:48;3.70;;;1.92;;
43706;SDS011;61348;53.392;-6.248;2023-04-24T14:38:15;5.85;;;1.88;;
43706;SDS011;61348;53.392;-6.248;2023-04-24T14:40:42;4.22;;;1.10;;
43706;SDS011;61348;53.392;-6.248;2023-04-24T14:43:11;4.43;;;1.27;;
43706;SDS011;61348;53.392;-6.248;2023-04-24T14:45:38;5.40;;;1.40;;
43706;SDS011;61348;53.392;-6.248;2023-04-24T14:48:07;4.75;;;1.40;;
43706;SDS011;61348;53.392;-6.248;2023-04-24T14:50:35;6.18;;;1.10;;
43706;SDS011;61348;53.392;-6.248;2023-04-24T14:53:02;6.85;;;1.40;;
43706;SDS011;61348;53.392;-6.248;2023-04-24T14:55:29;7.20;;;1.60;;